Terminal Aerodrome Forecast
Issued by NWS

Home | Current Version | Previous Version | Text Only | Print | Product List | Glossary On
Versions: 1 2 3 4 5 6 7 8 9 10 11 12 13 14 15 16 17 18 19 20 21 22 23 24 25 26 27 28 29 30 31 32
000
FTUS46 KEKA 281747 CCA
TAFCEC
TAF COR
KCEC 281747Z 2818/2918 21007KT P6SM BKN006 OVC010
      TEMPO 2818/2820 BKN009
     FM282000 19007KT P6SM SCT007 BKN010
      TEMPO 2820/2823 FEW007 SCT010 BKN250
     FM290000 24009KT 6SM BR BKN007 BKN015
     FM290300 17005KT 4SM BR OVC005=

USA.gov is the U.S. government's official web portal to all federal, state and local government web resources and services.